Aérodrome :
LOGIN :

S'inscrire | Disclaimer

   EN    FR    IT 

 










Légende :    VFR   VFR Marginal   IFR   IFR Intensif   IFR Très Intensif
Visi : 
Plafond : 
>= 8 km
>= 3000ft
5 à 8 km
1000 à 3000 ft
1500m à 5 km
500 à 1000 ft
800 à 1500m
200 à 500 ft
< 800m
< 200 ft
Symboles :   Orages  Brouillard  Fortes neiges  Fortes précipitations  Vent > 20 kt
SIGMETs :   Divers  Orages  Givrage  Turbulence  Onde Orograph.  Cendres Volcan.






- Altitude de l'aérodrome : 37 ft


EHVL - Vlieland Heliport

DERNIER METAR :
  • 240156Z AUTO 20010KT 1800 BR OVC002 04/04 Q1024 AMB

METARs EXPIRÉS :
  • 240146Z AUTO 19011KT 1800 BR OVC002 05/04 Q1024 AMB
  • 240142Z AUTO 19011KT 1700 BR OVC003 05/04 Q1024 YLO
  • 240125Z AUTO 20010KT 1800 BR BKN002 OVC005 05/04 Q1024 AMB
  • 240107Z AUTO 20011KT 1800 BR OVC002 05/05 Q1024 AMB
  • 240055Z AUTO 20011KT 2000 BR BKN003 BKN006 OVC007 05/05 Q1024 YLO
  • 240040Z AUTO 20010KT 2100 BR FEW001 BKN005 OVC007 05/05 Q1024 YLO
  • 240039Z AUTO 19009KT 2200 BR FEW001 SCT006 OVC007 05/05 Q1024 YLO
  • 240025Z AUTO 19011KT 2400 BR FEW005 SCT006 BKN007 05/05 Q1024 YLO
  • 232355Z AUTO 19009KT 2100 BR FEW003 OVC006 05/05 Q1025 YLO
  • 232329Z AUTO 20008KT 1900 BR SCT003 OVC006 05/05 Q1025 YLO

Prévision TAF périmée.



MET'MAP, la Météo Aéronautique d'un coup d'oeil ! - Copyright ORBIFLY Décembre 2007 - Disclaimer

ORBIFLY MET'MAP TEAM :

Programmation & Développement : Alexandra Zaïnal
Sur une idée originale de : Baudouin d'Aumeries
Assistance à la programmation : Marc-Olivier Méhu
Soutien technique & logistique : Manuel Goepfert

Contact : metmap@orbifly.com




SOURCES & CREDITS :

   NOAA